Time;durP1;ratioP1;P1;durP2;ratioP2;P2;SDS_P1;SDS_P2;PMS_P1;PMS_P2;Temp;Humidity;BMP_temperature;BMP_pressure;BME280_temperature;BME280_humidity;BME280_pressure;Samples;Min_cycle;Max_cycle;Signal;HPM_P1;HPM_P2
2022/12/14 00:01:03;;;;;;;;;;;;;;;;;;4982429;28;19934;-82
2022/12/14 00:03:30;;;;;;;;;;;-1.20;99.90;;;;;;4964770;28;19985;-83
2022/12/14 00:05:58;;;;;;;;;;;-1.20;99.90;;;;;;4985964;28;20494;-83
2022/12/14 00:08:25;;;;;;;;;;;-1.20;99.90;;;;;;4979983;28;20372;-82
2022/12/14 00:10:53;;;;;;;;;;;-1.20;99.90;;;;;;4966397;28;19941;-83
2022/12/14 00:13:21;;;;;;;;;;;-1.20;99.90;;;;;;4964627;28;19934;-82
2022/12/14 00:15:48;;;;;;;;;;;-1.20;99.90;;;;;;4962992;28;19933;-81
2022/12/14 00:18:15;;;;;;;;;;;-1.10;99.90;;;;;;4972490;28;19937;-79
2022/12/14 00:20:42;;;;;;;;;;;-1.10;99.90;;;;;;4974326;28;19926;-79
2022/12/14 00:23:11;;;;;;;;;;;-1.10;99.90;;;;;;4978474;28;19934;-80
2022/12/14 00:25:38;;;;;;;;;;;-1.10;99.90;;;;;;4977604;28;20411;-80
2022/12/14 00:28:04;;;;;;;;;;;-1.10;99.90;;;;;;4962233;28;19981;-81
2022/12/14 00:30:31;;;;;;;;;;;-1.10;99.90;;;;;;4968321;28;19930;-80
2022/12/14 00:32:58;;;;;;;;;;;-1.00;99.90;;;;;;4979377;28;19952;-80
2022/12/14 00:35:25;;;;;;;;;;;-1.00;99.90;;;;;;4980447;28;19930;-81
2022/12/14 00:37:52;;;;;;;;;;;-1.00;99.90;;;;;;4975923;28;19933;-80
2022/12/14 00:40:21;;;;;;;;;;;-0.90;99.90;;;;;;4974896;28;19930;-80
2022/12/14 00:42:48;;;;;;;;;;;-0.90;99.90;;;;;;4944005;28;20348;-80
2022/12/14 00:45:15;;;;;;;;;;;-1.00;99.90;;;;;;4964889;28;19934;-81
2022/12/14 00:47:41;;;;;;;;;;;-1.00;99.90;;;;;;4961680;28;19930;-80
2022/12/14 00:50:09;;;;;;;;;;;-1.10;99.90;;;;;;4977658;28;19926;-81
2022/12/14 00:52:37;;;;;;;;;;;-1.00;99.90;;;;;;4977061;28;19992;-80
2022/12/14 00:55:04;;;;;;;;;;;-1.00;99.90;;;;;;4977815;28;19930;-82
2022/12/14 00:57:32;;;;;;;;;;;-1.00;99.90;;;;;;4978891;28;19926;-81
2022/12/14 00:59:59;;;;;;;;;;;-1.00;99.90;;;;;;4966608;28;19926;-81
2022/12/14 01:02:26;;;;;;;;;;;-1.10;99.90;;;;;;4962063;28;19934;-80
2022/12/14 01:04:53;;;;;;;;;;;-1.00;99.90;;;;;;4960942;28;19937;-81
2022/12/14 01:07:21;;;;;;;;;;;-1.00;99.90;;;;;;4959237;28;19914;-79
2022/12/14 01:09:48;;;;;;;;;;;-1.10;99.90;;;;;;4964935;28;20033;-80
2022/12/14 01:12:15;;;;;;;;;;;-1.10;99.90;;;;;;4960801;28;20334;-80
2022/12/14 01:14:45;;;;;;;;;;;-1.00;99.90;;;;;;4976694;28;19930;-80
2022/12/14 01:17:13;;;;;;;;;;;-1.00;99.90;;;;;;4976325;28;19926;-81
2022/12/14 01:19:40;;;;;;;;;;;-1.00;99.90;;;;;;4972820;28;20356;-81
2022/12/14 01:22:07;;;;;;;;;;;-0.90;99.90;;;;;;4971527;28;20086;-81
2022/12/14 01:24:37;;;;;;;;;;;-0.90;99.90;;;;;;4984244;28;19930;-82
2022/12/14 01:27:04;;;;;;;;;;;-1.00;99.90;;;;;;4968186;28;19938;-82
2022/12/14 01:29:31;;;;;;;;;;;-1.00;99.90;;;;;;4966423;28;20025;-81
2022/12/14 01:32:01;;;;;;;;;;;-1.00;99.90;;;;;;4982197;28;19934;-81
2022/12/14 01:34:28;;;;;;;;;;;-1.10;99.90;;;;;;4972674;28;19936;-80
2022/12/14 01:36:55;;;;;;;;;;;-1.10;99.90;;;;;;4967136;28;19953;-80
2022/12/14 01:39:22;;;;;;;;;;;-1.20;99.90;;;;;;4963740;28;19914;-80
2022/12/14 01:41:51;;;;;;;;;;;-1.30;99.90;;;;;;4961622;28;19966;-81
2022/12/14 01:44:37;;;;;;;;;;;-1.30;99.90;;;;;;4979731;28;19941;-79
2022/12/14 01:47:06;;;;;;;;;;;-1.30;99.90;;;;;;4961767;28;19930;-80
2022/12/14 01:49:37;;;;;;;;;;;-1.30;99.90;;;;;;4977232;28;19930;-81
2022/12/14 01:52:07;;;;;;;;;;;-0.40;99.90;;;;;;4959802;28;19949;-79
2022/12/14 01:54:37;;;;;;;;;;;-1.30;99.90;;;;;;4959019;28;20396;-82
2022/12/14 01:57:04;;;;;;;;;;;-1.40;99.90;;;;;;4976949;28;19940;-82
2022/12/14 01:59:33;;;;;;;;;;;-1.40;99.90;;;;;;4969442;28;20288;-83
2022/12/14 02:02:02;;;;;;;;;;;-1.50;99.90;;;;;;4964337;28;20261;-81
2022/12/14 02:04:31;;;;;;;;;;;-1.50;99.90;;;;;;4973577;28;19989;-81
2022/12/14 02:06:58;;;;;;;;;;;-1.60;99.90;;;;;;4964723;28;19930;-82
2022/12/14 02:09:28;;;;;;;;;;;-1.70;99.90;;;;;;4961029;28;19930;-82
2022/12/14 02:11:56;;;;;;;;;;;-1.70;99.90;;;;;;4972949;28;19930;-82
2022/12/14 02:14:28;;;;;;;;;;;-1.80;99.90;;;;;;4978158;28;20113;-82
2022/12/14 02:16:56;;;;;;;;;;;-1.80;99.90;;;;;;4973658;28;19937;-82
2022/12/14 02:19:23;;;;;;;;;;;-1.80;99.90;;;;;;4961818;28;19934;-83
2022/12/14 02:22:04;;;;;;;;;;;-1.80;99.90;;;;;;4965979;28;19941;-83
2022/12/14 02:24:49;;;;;;;;;;;-1.80;99.90;;;;;;4963734;28;20024;-82
2022/12/14 02:27:26;;;;;;;;;;;-1.90;99.90;;;;;;4968920;28;19948;-82
2022/12/14 02:30:09;;;;;;;;;;;-1.90;99.90;;;;;;4968229;28;20305;-82
2022/12/14 02:32:50;;;;;;;;;;;-1.90;99.90;;;;;;4960346;28;20025;-81
2022/12/14 02:35:23;;;;;;;;;;;-2.00;99.90;;;;;;4930656;28;20024;-82
2022/12/14 02:37:56;;;;;;;;;;;-2.00;99.90;;;;;;4958692;28;20061;-82
2022/12/14 02:40:26;;;;;;;;;;;-2.00;99.90;;;;;;4960436;28;20005;-81
2022/12/14 02:42:56;;;;;;;;;;;-2.00;99.90;;;;;;4969470;28;19948;-83
2022/12/14 02:45:26;;;;;;;;;;;-1.90;99.90;;;;;;4961927;28;19929;-83
2022/12/14 02:47:54;;;;;;;;;;;-1.90;99.90;;;;;;4977440;28;19930;-83
2022/12/14 02:50:23;;;;;;;;;;;-1.90;99.90;;;;;;4961148;28;19937;-83
2022/12/14 02:52:54;;;;;;;;;;;-1.90;99.90;;;;;;4958965;28;19934;-82
2022/12/14 02:55:24;;;;;;;;;;;-1.90;99.90;;;;;;4959905;28;19941;-83
2022/12/14 02:57:53;;;;;;;;;;;-1.80;99.90;;;;;;4958444;28;19926;-83
2022/12/14 03:00:20;;;;;;;;;;;-1.90;99.90;;;;;;4981096;28;20110;-83
2022/12/14 03:02:49;;;;;;;;;;;-1.90;99.90;;;;;;4959008;28;19937;-83
2022/12/14 03:05:28;;;;;;;;;;;-1.90;99.90;;;;;;4963736;28;19926;-83
2022/12/14 03:07:57;;;;;;;;;;;-1.90;99.90;;;;;;4964244;28;19930;-83
2022/12/14 03:10:29;;;;;;;;;;;-1.90;99.90;;;;;;4962662;28;19941;-84
2022/12/14 03:13:01;;;;;;;;;;;-1.90;99.90;;;;;;4962933;28;19930;-83
2022/12/14 03:15:29;;;;;;;;;;;-1.90;99.90;;;;;;4957732;28;20307;-83
2022/12/14 03:18:00;;;;;;;;;;;-2.00;99.90;;;;;;4958058;28;19927;-83
2022/12/14 03:20:28;;;;;;;;;;;-1.90;99.90;;;;;;4975914;28;19933;-83
2022/12/14 03:23:03;;;;;;;;;;;-1.80;99.90;;;;;;4961695;28;19942;-83
2022/12/14 03:25:35;;;;;;;;;;;-1.80;99.90;;;;;;4958430;28;20391;-84
2022/12/14 03:28:04;;;;;;;;;;;-1.80;99.90;;;;;;4973775;28;19937;-83
2022/12/14 03:30:33;;;;;;;;;;;-1.80;99.90;;;;;;4968458;28;19914;-83
2022/12/14 03:33:02;;;;;;;;;;;-1.90;99.90;;;;;;4961715;28;20470;-83
2022/12/14 03:35:32;;;;;;;;;;;-1.90;99.90;;;;;;4985203;28;20229;-83
2022/12/14 03:38:02;;;;;;;;;;;-2.00;99.90;;;;;;4966529;28;20018;-82
2022/12/14 03:40:32;;;;;;;;;;;-2.00;99.90;;;;;;4967338;28;20292;-83
2022/12/14 03:43:02;;;;;;;;;;;-2.00;99.90;;;;;;4969273;28;20022;-82
2022/12/14 03:45:32;;;;;;;;;;;-2.00;99.90;;;;;;4969718;28;19930;-81
2022/12/14 03:48:06;;;;;;;;;;;-2.00;99.90;;;;;;4979512;28;19930;-82
2022/12/14 03:50:36;;;;;;;;;;;-2.00;99.90;;;;;;4978545;28;19930;-82
2022/12/14 03:53:06;;;;;;;;;;;-1.90;99.90;;;;;;4978918;28;19930;-82
2022/12/14 03:55:37;;;;;;;;;;;-1.90;99.90;;;;;;4961210;28;20437;-81
2022/12/14 03:58:20;;;;;;;;;;;-1.90;99.90;;;;;;4972330;28;19938;-83
2022/12/14 04:00:51;;;;;;;;;;;-1.90;99.90;;;;;;4980271;28;22009;-83
2022/12/14 04:03:22;;;;;;;;;;;-1.80;99.90;;;;;;4972252;28;19937;-83
2022/12/14 04:05:52;;;;;;;;;;;-1.80;99.90;;;;;;4973077;28;19930;-83
2022/12/14 04:08:22;;;;;;;;;;;-1.70;99.90;;;;;;4973620;28;20039;-83
2022/12/14 04:19:16;;;;;;;;;;;-1.60;99.90;;;;;;4957128;28;19993;-83
2022/12/14 04:21:46;;;;;;;;;;;-1.60;99.90;;;;;;4961315;28;19930;-83
2022/12/14 04:27:04;;;;;;;;;;;-1.50;99.90;;;;;;4961742;28;20000;-81
2022/12/14 04:32:19;;;;;;;;;;;-1.40;99.90;;;;;;4962469;28;19934;-81
2022/12/14 04:34:49;;;;;;;;;;;-1.40;99.90;;;;;;4984327;28;20005;-80
2022/12/14 04:37:18;;;;;;;;;;;-1.40;99.90;;;;;;4967314;28;19926;-80
2022/12/14 04:39:48;;;;;;;;;;;-1.40;99.90;;;;;;4962059;28;19981;-82
2022/12/14 04:42:16;;;;;;;;;;;-1.30;99.90;;;;;;4986511;28;20414;-81
2022/12/14 04:44:47;;;;;;;;;;;-1.30;99.90;;;;;;4968938;28;19940;-79
2022/12/14 04:47:16;;;;;;;;;;;-1.30;99.90;;;;;;4967836;28;19926;-80
2022/12/14 04:49:46;;;;;;;;;;;-1.20;99.90;;;;;;4970163;28;19933;-80
2022/12/14 04:52:15;;;;;;;;;;;-1.20;99.90;;;;;;4966856;28;19988;-80
2022/12/14 04:54:45;;;;;;;;;;;-1.20;99.90;;;;;;4962792;28;19926;-80
2022/12/14 04:57:17;;;;;;;;;;;-1.20;99.90;;;;;;4969756;28;19930;-80
2022/12/14 04:59:44;;;;;;;;;;;-1.10;99.90;;;;;;4979414;28;20091;-80
2022/12/14 05:02:19;;;;;;;;;;;-1.20;99.90;;;;;;4975601;28;19941;-80
2022/12/14 05:04:54;;;;;;;;;;;-1.20;99.90;;;;;;4983622;28;19930;-80
2022/12/14 05:07:34;;;;;;;;;;;-1.20;99.90;;;;;;4963580;28;19970;-79
2022/12/14 05:10:03;;;;;;;;;;;-1.20;99.90;;;;;;4966452;28;19926;-79
2022/12/14 05:12:35;;;;;;;;;;;-1.10;99.90;;;;;;4961362;28;19930;-82
2022/12/14 05:15:04;;;;;;;;;;;-1.20;99.90;;;;;;4982234;28;19941;-80
2022/12/14 05:17:34;;;;;;;;;;;-1.10;99.90;;;;;;4966563;28;20611;-80
2022/12/14 05:20:01;;;;;;;;;;;-1.10;99.90;;;;;;4981842;28;20001;-80
2022/12/14 05:22:29;;;;;;;;;;;-1.10;99.90;;;;;;4982209;28;20528;-80
2022/12/14 05:24:59;;;;;;;;;;;-1.10;99.90;;;;;;4983880;28;19929;-80
2022/12/14 05:27:26;;;;;;;;;;;-1.10;99.90;;;;;;4987299;28;20024;-80
2022/12/14 05:29:53;;;;;;;;;;;-1.00;99.90;;;;;;4964440;28;19934;-80
2022/12/14 05:32:20;;;;;;;;;;;-1.10;99.90;;;;;;4963347;28;19930;-79
2022/12/14 05:34:47;;;;;;;;;;;-1.10;99.90;;;;;;4962826;28;19933;-80
2022/12/14 05:37:14;;;;;;;;;;;-1.00;99.90;;;;;;4966475;28;19926;-79
2022/12/14 05:39:43;;;;;;;;;;;-1.00;99.90;;;;;;4977334;28;19966;-81
2022/12/14 05:42:10;;;;;;;;;;;-1.00;99.90;;;;;;4981170;28;19996;-80
2022/12/14 05:44:37;;;;;;;;;;;-1.00;99.90;;;;;;4971217;28;19930;-80
2022/12/14 05:47:04;;;;;;;;;;;-1.10;99.90;;;;;;4981024;28;19925;-79
2022/12/14 05:49:31;;;;;;;;;;;-1.10;99.90;;;;;;4967250;28;19930;-77
2022/12/14 05:51:58;;;;;;;;;;;-1.10;99.90;;;;;;4956042;28;19927;-78
2022/12/14 05:54:27;;;;;;;;;;;-1.10;99.90;;;;;;4958532;28;21348;-79
2022/12/14 05:56:55;;;;;;;;;;;-1.10;99.90;;;;;;4959688;28;19926;-79
2022/12/14 05:59:22;;;;;;;;;;;-1.10;99.90;;;;;;4962964;28;19930;-80
2022/12/14 06:01:50;;;;;;;;;;;-1.00;99.90;;;;;;4978203;28;19934;-78
2022/12/14 06:04:17;;;;;;;;;;;-1.00;99.90;;;;;;4979397;28;19914;-79
2022/12/14 06:06:44;;;;;;;;;;;-1.00;99.90;;;;;;4956776;28;20296;-80
2022/12/14 06:09:14;;;;;;;;;;;-1.00;99.90;;;;;;4943313;29;19934;-81
2022/12/14 06:11:41;;;;;;;;;;;-1.00;99.90;;;;;;4966324;28;20034;-81
2022/12/14 06:14:10;;;;;;;;;;;-1.00;99.90;;;;;;4985115;28;20371;-82
2022/12/14 06:16:39;;;;;;;;;;;-1.10;99.90;;;;;;4962347;28;19954;-82
2022/12/14 06:19:07;;;;;;;;;;;-1.00;99.90;;;;;;4981424;28;20876;-82
2022/12/14 06:21:34;;;;;;;;;;;-1.10;99.90;;;;;;4964795;28;19930;-82
2022/12/14 06:24:02;;;;;;;;;;;-1.10;99.90;;;;;;4966197;28;19938;-80
2022/12/14 06:26:29;;;;;;;;;;;-1.00;99.90;;;;;;4957254;28;19953;-80
2022/12/14 06:28:57;;;;;;;;;;;-1.00;99.90;;;;;;4978275;28;19930;-80
2022/12/14 06:31:26;;;;;;;;;;;-0.90;99.90;;;;;;4963130;28;19933;-80
2022/12/14 06:33:53;;;;;;;;;;;-0.90;99.90;;;;;;4967983;28;19984;-81
2022/12/14 06:36:22;;;;;;;;;;;-0.90;99.90;;;;;;4965300;28;19946;-80
2022/12/14 06:38:50;;;;;;;;;;;-0.80;99.90;;;;;;4966318;28;20081;-81
2022/12/14 06:41:17;;;;;;;;;;;-0.80;99.90;;;;;;4966168;28;19937;-81
2022/12/14 06:43:44;;;;;;;;;;;-0.80;99.90;;;;;;4976973;28;19929;-80
2022/12/14 06:46:12;;;;;;;;;;;-0.80;99.90;;;;;;4977236;28;19941;-80
2022/12/14 06:48:40;;;;;;;;;;;-0.70;99.90;;;;;;4961030;28;19932;-79
2022/12/14 06:51:08;;;;;;;;;;;-0.70;99.90;;;;;;4961147;28;19941;-80
2022/12/14 06:53:35;;;;;;;;;;;-0.70;99.90;;;;;;4961686;28;19914;-81
2022/12/14 06:56:07;;;;;;;;;;;-0.70;99.90;;;;;;4959767;28;20014;-80
2022/12/14 06:58:34;;;;;;;;;;;-0.70;99.90;;;;;;4976610;28;19926;-80
2022/12/14 07:01:02;;;;;;;;;;;-0.70;99.90;;;;;;4959747;28;19926;-79
2022/12/14 07:03:30;;;;;;;;;;;-0.60;99.90;;;;;;4967675;28;19926;-79
2022/12/14 07:05:59;;;;;;;;;;;-0.60;99.90;;;;;;4963010;28;19934;-79
2022/12/14 07:08:27;;;;;;;;;;;-0.70;99.90;;;;;;4988019;28;20153;-79
2022/12/14 07:10:54;;;;;;;;;;;-0.70;99.90;;;;;;4962534;28;19926;-81
2022/12/14 07:13:21;;;;;;;;;;;-0.70;99.90;;;;;;4960645;28;19922;-82
2022/12/14 07:15:51;;;;;;;;;;;-0.70;99.90;;;;;;4965171;28;20031;-80
2022/12/14 07:18:18;;;;;;;;;;;-0.70;99.90;;;;;;4962882;28;19938;-81
2022/12/14 07:20:53;;;;;;;;;;;-0.70;99.90;;;;;;4960471;28;20075;-80
2022/12/14 07:23:23;;;;;;;;;;;-0.70;99.90;;;;;;4963993;28;19985;-83
2022/12/14 07:25:50;;;;;;;;;;;-0.70;99.90;;;;;;4965105;28;19930;-79
2022/12/14 07:28:20;;;;;;;;;;;-0.70;99.90;;;;;;4962801;28;19961;-80
2022/12/14 07:30:47;;;;;;;;;;;-0.70;99.90;;;;;;4986346;28;20028;-83
2022/12/14 07:33:20;;;;;;;;;;;-0.70;99.90;;;;;;4972338;28;19934;-82
2022/12/14 07:35:49;;;;;;;;;;;-0.70;99.90;;;;;;4963359;28;19930;-81
2022/12/14 07:38:19;;;;;;;;;;;-0.60;99.90;;;;;;4964737;28;19953;-81
2022/12/14 07:40:47;;;;;;;;;;;-0.70;99.90;;;;;;4960334;28;20267;-81
2022/12/14 07:43:14;;;;;;;;;;;-0.60;99.90;;;;;;4954951;28;19937;-81
2022/12/14 07:45:42;;;;;;;;;;;-0.60;99.90;;;;;;4966635;28;20419;-82
2022/12/14 07:48:09;;;;;;;;;;;-0.60;99.90;;;;;;4976869;28;19945;-80
2022/12/14 07:50:36;;;;;;;;;;;-0.60;99.90;;;;;;4962225;28;20332;-78
2022/12/14 07:53:03;;;;;;;;;;;-0.60;99.90;;;;;;4958031;29;19950;-84
2022/12/14 07:55:30;;;;;;;;;;;-0.60;99.90;;;;;;4956170;29;19927;-82
2022/12/14 07:57:59;;;;;;;;;;;-0.60;99.90;;;;;;4978596;28;19931;-80
2022/12/14 08:00:26;;;;;;;;;;;-0.60;99.90;;;;;;4962063;28;19934;-81
2022/12/14 08:02:54;;;;;;;;;;;-0.50;99.90;;;;;;4963878;28;20297;-81
2022/12/14 08:05:22;;;;;;;;;;;-0.40;99.90;;;;;;4980507;28;19934;-81
2022/12/14 08:07:49;;;;;;;;;;;-0.30;99.90;;;;;;4968348;28;19956;-81
2022/12/14 08:10:17;;;;;;;;;;;-0.20;99.90;;;;;;4976445;28;19926;-84
2022/12/14 08:12:45;;;;;;;;;;;-0.20;99.90;;;;;;4963889;28;19953;-85
2022/12/14 08:15:13;;;;;;;;;;;-0.20;99.90;;;;;;4961452;28;19926;-83
2022/12/14 08:17:40;;;;;;;;;;;-0.10;99.90;;;;;;4975867;28;19922;-84
2022/12/14 08:20:09;;;;;;;;;;;-0.20;99.90;;;;;;4970229;28;19941;-83
2022/12/14 08:22:36;;;;;;;;;;;-0.20;99.90;;;;;;4972646;28;19934;-84
2022/12/14 08:25:04;;;;;;;;;;;-0.20;99.90;;;;;;4969604;28;19941;-82
2022/12/14 08:27:32;;;;;;;;;;;-0.20;99.90;;;;;;4972093;28;20306;-83
2022/12/14 08:30:02;;;;;;;;;;;-0.10;99.90;;;;;;4972924;28;19930;-82
2022/12/14 08:32:30;;;;;;;;;;;-0.10;99.90;;;;;;4949418;28;19930;-84
2022/12/14 08:34:58;;;;;;;;;;;0.00;99.90;;;;;;4967528;28;19930;-84
2022/12/14 08:37:25;;;;;;;;;;;0.10;99.90;;;;;;4968220;28;19930;-83
2022/12/14 08:39:52;;;;;;;;;;;0.30;99.90;;;;;;4944718;28;19982;-84
2022/12/14 08:42:19;;;;;;;;;;;0.40;99.90;;;;;;4945024;28;19938;-84
2022/12/14 08:44:46;;;;;;;;;;;0.40;99.90;;;;;;4956809;28;19934;-84
2022/12/14 08:47:13;;;;;;;;;;;0.50;99.90;;;;;;4956907;28;19966;-83
2022/12/14 08:49:43;;;;;;;;;;;0.50;99.90;;;;;;4946961;28;19930;-84
2022/12/14 08:52:10;;;;;;;;;;;0.60;99.90;;;;;;4943130;28;19938;-85
2022/12/14 08:54:37;;;;;;;;;;;0.60;99.90;;;;;;4958797;28;19935;-84
2022/12/14 08:57:04;;;;;;;;;;;0.60;99.90;;;;;;4954623;28;19934;-83
2022/12/14 08:59:32;;;;;;;;;;;0.70;99.90;;;;;;4955373;28;19933;-84
2022/12/14 09:01:59;;;;;;;;;;;0.80;99.90;;;;;;4942959;28;19963;-81
2022/12/14 09:04:26;;;;;;;;;;;0.80;99.90;;;;;;4962926;28;20197;-83
2022/12/14 09:06:55;;;;;;;;;;;0.80;99.90;;;;;;4953879;28;19930;-82
2022/12/14 09:09:22;;;;;;;;;;;0.80;99.90;;;;;;4948470;28;19937;-83
2022/12/14 09:11:49;;;;;;;;;;;0.80;99.90;;;;;;4948105;28;19926;-82
2022/12/14 09:14:16;;;;;;;;;;;0.70;99.90;;;;;;4975178;28;20349;-82
2022/12/14 09:16:43;;;;;;;;;;;0.80;99.90;;;;;;4958239;28;19930;-83
2022/12/14 09:19:09;;;;;;;;;;;0.90;99.90;;;;;;4965708;28;20387;-83
2022/12/14 09:21:37;;;;;;;;;;;1.00;99.90;;;;;;4977906;28;20135;-82
2022/12/14 09:24:06;;;;;;;;;;;1.00;99.90;;;;;;4958860;28;20035;-83
2022/12/14 09:26:33;;;;;;;;;;;1.10;99.90;;;;;;4955564;28;20029;-82
2022/12/14 09:29:00;;;;;;;;;;;1.20;99.90;;;;;;4959877;28;19934;-82
2022/12/14 09:31:27;;;;;;;;;;;1.20;99.90;;;;;;4964988;28;19930;-83
2022/12/14 09:33:55;;;;;;;;;;;1.20;99.90;;;;;;4961720;28;19993;-83
2022/12/14 09:36:23;;;;;;;;;;;1.30;99.90;;;;;;4960532;28;20646;-82
2022/12/14 09:38:50;;;;;;;;;;;1.30;99.90;;;;;;4968451;28;19926;-82
2022/12/14 09:41:23;;;;;;;;;;;1.40;99.90;;;;;;4966487;28;19937;-83
2022/12/14 09:43:53;;;;;;;;;;;1.40;99.90;;;;;;4964085;28;19930;-83
2022/12/14 09:46:28;;;;;;;;;;;1.40;99.90;;;;;;4975579;28;19930;-83
2022/12/14 09:48:56;;;;;;;;;;;1.40;99.90;;;;;;4959913;28;19933;-83
2022/12/14 09:51:25;;;;;;;;;;;1.30;99.90;;;;;;4960749;28;19937;-82
2022/12/14 09:54:05;;;;;;;;;;;1.20;99.90;;;;;;4966194;28;19965;-83
2022/12/14 09:56:36;;;;;;;;;;;1.10;99.90;;;;;;4959855;28;19937;-83
2022/12/14 09:59:04;;;;;;;;;;;0.90;99.90;;;;;;4963406;28;19926;-83
2022/12/14 10:01:50;;;;;;;;;;;0.80;99.90;;;;;;4965210;28;19913;-84
2022/12/14 10:04:23;;;;;;;;;;;0.70;99.90;;;;;;4969394;28;19934;-83
2022/12/14 10:06:53;;;;;;;;;;;0.60;99.90;;;;;;4967036;28;19944;-82
2022/12/14 10:09:23;;;;;;;;;;;0.60;99.90;;;;;;4964568;28;19937;-84
2022/12/14 10:12:00;;;;;;;;;;;0.60;99.90;;;;;;4961893;28;20017;-82
2022/12/14 10:14:37;;;;;;;;;;;0.60;99.90;;;;;;4964260;28;20508;-82
2022/12/14 10:17:07;;;;;;;;;;;0.70;99.90;;;;;;4971336;28;20061;-82
2022/12/14 10:19:39;;;;;;;;;;;0.70;99.90;;;;;;4968612;28;19937;-83
2022/12/14 10:22:10;;;;;;;;;;;0.70;99.90;;;;;;4966499;28;19926;-84
2022/12/14 10:24:41;;;;;;;;;;;0.70;99.90;;;;;;4979673;28;19930;-84
2022/12/14 10:27:14;;;;;;;;;;;0.70;99.90;;;;;;4978003;28;19930;-82
2022/12/14 10:29:43;;;;;;;;;;;0.70;99.90;;;;;;4956854;28;19931;-83
2022/12/14 10:32:20;;;;;;;;;;;0.70;99.90;;;;;;4967609;28;19925;-83
2022/12/14 10:34:47;;;;;;;;;;;0.80;99.90;;;;;;4961075;28;19934;-83
2022/12/14 10:37:23;;;;;;;;;;;0.90;99.90;;;;;;4964711;28;19934;-83
2022/12/14 10:39:53;;;;;;;;;;;1.00;99.90;;;;;;4964727;28;20159;-83
2022/12/14 10:42:25;;;;;;;;;;;1.10;99.90;;;;;;4971521;28;19981;-84
2022/12/14 10:44:57;;;;;;;;;;;1.40;99.90;;;;;;4976324;28;19926;-84
2022/12/14 10:47:35;;;;;;;;;;;1.60;99.90;;;;;;4990536;28;19933;-83
2022/12/14 10:50:17;;;;;;;;;;;1.60;99.90;;;;;;4968139;28;19930;-81
2022/12/14 10:52:45;;;;;;;;;;;1.80;99.90;;;;;;4967966;28;19930;-81
2022/12/14 10:55:14;;;;;;;;;;;2.00;99.90;;;;;;4968894;28;19930;-81
2022/12/14 10:57:43;;;;;;;;;;;2.20;99.90;;;;;;4970823;28;19930;-82
2022/12/14 11:00:12;;;;;;;;;;;2.20;99.90;;;;;;4971163;28;19930;-81
2022/12/14 11:02:41;;;;;;;;;;;2.30;99.90;;;;;;4967618;28;19945;-82
2022/12/14 11:05:15;;;;;;;;;;;2.40;99.90;;;;;;4968104;28;19934;-82
2022/12/14 11:07:44;;;;;;;;;;;2.30;99.90;;;;;;4968607;28;19926;-82
2022/12/14 11:10:17;;;;;;;;;;;2.40;99.90;;;;;;4970160;28;19930;-82
2022/12/14 11:12:54;;;;;;;;;;;2.60;99.90;;;;;;4986834;28;19922;-82
2022/12/14 11:15:23;;;;;;;;;;;2.70;99.90;;;;;;4964234;28;19985;-81
2022/12/14 11:17:59;;;;;;;;;;;2.80;99.90;;;;;;4960010;29;19927;-82
2022/12/14 11:20:26;;;;;;;;;;;2.90;99.90;;;;;;4978030;28;20024;-81
2022/12/14 11:22:54;;;;;;;;;;;2.90;99.90;;;;;;4955299;29;19938;-81
2022/12/14 11:25:27;;;;;;;;;;;3.00;99.90;;;;;;4953999;29;20047;-81
2022/12/14 11:27:56;;;;;;;;;;;3.00;99.90;;;;;;4950833;28;20418;-82
2022/12/14 11:30:23;;;;;;;;;;;3.10;99.90;;;;;;4966871;28;20332;-82
2022/12/14 11:32:50;;;;;;;;;;;3.10;99.90;;;;;;4971096;28;19993;-80
2022/12/14 11:35:18;;;;;;;;;;;3.10;99.90;;;;;;4956304;29;20033;-82
2022/12/14 11:37:46;;;;;;;;;;;3.10;99.90;;;;;;4946727;29;19931;-81
2022/12/14 11:40:19;;;;;;;;;;;3.10;99.90;;;;;;4970091;28;19961;-80
2022/12/14 11:42:47;;;;;;;;;;;3.20;99.90;;;;;;4986932;28;19926;-80
2022/12/14 11:45:27;;;;;;;;;;;3.30;99.90;;;;;;4979049;28;19930;-81
2022/12/14 11:48:10;;;;;;;;;;;3.40;99.90;;;;;;4980591;28;19998;-81
2022/12/14 11:50:37;;;;;;;;;;;3.40;99.90;;;;;;4980125;28;19933;-82
2022/12/14 11:53:05;;;;;;;;;;;3.40;99.90;;;;;;4965344;28;19930;-81
2022/12/14 11:55:37;;;;;;;;;;;3.30;99.90;;;;;;4963696;28;20001;-80
2022/12/14 11:58:05;;;;;;;;;;;3.40;99.90;;;;;;4964330;28;19930;-82
2022/12/14 12:00:43;;;;;;;;;;;3.40;99.90;;;;;;4959299;28;20424;-82
2022/12/14 12:03:14;;;;;;;;;;;3.50;99.90;;;;;;4959943;28;19934;-82
2022/12/14 12:05:43;;;;;;;;;;;3.50;99.90;;;;;;4978737;28;19982;-82
2022/12/14 12:08:18;;;;;;;;;;;3.50;99.90;;;;;;4961221;28;19957;-82
2022/12/14 12:10:47;;;;;;;;;;;5.20;99.90;;;;;;4963527;28;19930;-83
2022/12/14 12:13:20;;;;;;;;;;;3.40;99.90;;;;;;4972629;28;19930;-82
2022/12/14 12:15:50;;;;;;;;;;;3.40;99.90;;;;;;4975410;28;19993;-82
2022/12/14 12:18:20;;;;;;;;;;;3.50;99.90;;;;;;4977566;28;20068;-82
2022/12/14 12:20:51;;;;;;;;;;;3.50;99.90;;;;;;4979906;28;19941;-83
2022/12/14 12:23:20;;;;;;;;;;;3.50;99.90;;;;;;4955849;28;19941;-82
2022/12/14 12:25:48;;;;;;;;;;;3.60;99.90;;;;;;4960803;28;19934;-82
2022/12/14 12:28:18;;;;;;;;;;;3.80;99.90;;;;;;4958677;28;19933;-80
2022/12/14 12:30:48;;;;;;;;;;;3.90;99.90;;;;;;4969435;28;19922;-82
2022/12/14 12:33:24;;;;;;;;;;;4.00;99.90;;;;;;4970248;28;20033;-82
2022/12/14 12:35:53;;;;;;;;;;;4.20;99.90;;;;;;4969044;28;20400;-82
2022/12/14 12:38:24;;;;;;;;;;;4.40;99.90;;;;;;4971871;28;19941;-83
2022/12/14 12:41:02;;;;;;;;;;;4.30;99.90;;;;;;4950057;28;19954;-83
2022/12/14 12:43:33;;;;;;;;;;;4.40;99.90;;;;;;4964369;28;19969;-82
2022/12/14 12:46:05;;;;;;;;;;;4.40;99.90;;;;;;4952654;28;19951;-82
2022/12/14 12:48:35;;;;;;;;;;;4.50;99.90;;;;;;4950145;28;19941;-83
2022/12/14 12:51:05;;;;;;;;;;;4.50;99.90;;;;;;4968960;28;20339;-83
2022/12/14 12:53:36;;;;;;;;;;;4.50;99.90;;;;;;4953538;28;19926;-82
2022/12/14 12:56:05;;;;;;;;;;;4.70;99.90;;;;;;4965980;28;20137;-83
2022/12/14 12:58:33;;;;;;;;;;;4.80;99.90;;;;;;4971857;28;19934;-83
2022/12/14 13:01:02;;;;;;;;;;;4.80;99.90;;;;;;4963339;28;19930;-83
2022/12/14 13:03:36;;;;;;;;;;;4.80;99.90;;;;;;4980632;28;20062;-83
2022/12/14 13:06:09;;;;;;;;;;;4.80;99.90;;;;;;4981078;28;19926;-84
2022/12/14 13:08:39;;;;;;;;;;;4.90;99.90;;;;;;4962775;28;19937;-83
2022/12/14 13:11:10;;;;;;;;;;;4.90;99.90;;;;;;4967651;28;19930;-84
2022/12/14 13:13:42;;;;;;;;;;;4.90;99.90;;;;;;4969446;28;20396;-83
2022/12/14 13:16:12;;;;;;;;;;;4.90;99.90;;;;;;4986684;28;19961;-83
2022/12/14 13:18:41;;;;;;;;;;;4.90;99.90;;;;;;4968914;28;22827;-84
2022/12/14 13:21:17;;;;;;;;;;;4.90;99.90;;;;;;4969816;28;19926;-83
2022/12/14 13:23:44;;;;;;;;;;;4.90;99.90;;;;;;4983638;28;20052;-84
2022/12/14 13:26:16;;;;;;;;;;;4.80;99.90;;;;;;4977400;28;20104;-84
2022/12/14 13:28:54;;;;;;;;;;;4.70;99.90;;;;;;4967392;28;20391;-83
2022/12/14 13:31:30;;;;;;;;;;;4.70;99.90;;;;;;4958771;28;19938;-84
2022/12/14 13:34:06;;;;;;;;;;;4.70;99.90;;;;;;4961369;29;19934;-83
2022/12/14 13:36:47;;;;;;;;;;;4.50;99.90;;;;;;4967452;29;19938;-84
2022/12/14 13:39:36;;;;;;;;;;;4.60;99.90;;;;;;4965914;28;19930;-84
2022/12/14 13:42:06;;;;;;;;;;;4.50;99.90;;;;;;4926318;29;20001;-83
2022/12/14 13:44:46;;;;;;;;;;;4.40;99.90;;;;;;4963420;28;19930;-84
2022/12/14 13:47:21;;;;;;;;;;;4.40;99.90;;;;;;4960951;28;19969;-84
2022/12/14 13:49:53;;;;;;;;;;;4.30;99.90;;;;;;4968594;28;19968;-84
2022/12/14 13:52:36;;;;;;;;;;;4.30;99.90;;;;;;4964251;28;19958;-84
2022/12/14 13:55:05;;;;;;;;;;;4.20;99.90;;;;;;4966691;28;19933;-83
2022/12/14 13:57:32;;;;;;;;;;;4.20;99.90;;;;;;4974603;28;21224;-83
2022/12/14 14:00:00;;;;;;;;;;;4.10;99.90;;;;;;4953738;28;20005;-83
2022/12/14 14:02:45;;;;;;;;;;;4.10;99.90;;;;;;4952763;28;19926;-80
2022/12/14 14:05:33;;;;;;;;;;;3.90;99.90;;;;;;4970674;28;19930;-80
2022/12/14 14:08:03;;;;;;;;;;;3.80;99.90;;;;;;4950328;28;19982;-80
2022/12/14 14:10:31;;;;;;;;;;;3.70;99.90;;;;;;4969451;28;20431;-80
2022/12/14 14:12:59;;;;;;;;;;;3.60;99.90;;;;;;4969648;28;20446;-80
2022/12/14 14:15:36;;;;;;;;;;;3.60;99.90;;;;;;4952762;28;19930;-80
2022/12/14 14:18:14;;;;;;;;;;;3.50;99.90;;;;;;4955535;28;19973;-80
2022/12/14 14:20:43;;;;;;;;;;;3.40;99.90;;;;;;4950729;28;20724;-80
2022/12/14 14:23:31;;;;;;;;;;;3.30;99.90;;;;;;4966086;28;19997;-80
2022/12/14 14:26:25;;;;;;;;;;;3.20;99.90;;;;;;4971760;28;19965;-80
2022/12/14 14:29:05;;;;;;;;;;;3.10;99.90;;;;;;4961531;28;20834;-78
2022/12/14 14:31:49;;;;;;;;;;;3.00;99.90;;;;;;4939727;28;20027;-79
2022/12/14 14:34:18;;;;;;;;;;;2.90;99.90;;;;;;4959077;28;19926;-78
2022/12/14 14:36:45;;;;;;;;;;;2.80;99.90;;;;;;4968872;28;19922;-79
2022/12/14 14:39:28;;;;;;;;;;;2.70;99.90;;;;;;4964504;28;19946;-79
2022/12/14 14:41:55;;;;;;;;;;;2.60;99.90;;;;;;4950805;28;19969;-79
2022/12/14 14:44:24;;;;;;;;;;;2.50;99.90;;;;;;4943898;28;19956;-79
2022/12/14 14:46:52;;;;;;;;;;;2.40;99.90;;;;;;4964417;28;19934;-79
2022/12/14 14:49:21;;;;;;;;;;;2.30;99.90;;;;;;4959242;28;19930;-79
2022/12/14 14:51:48;;;;;;;;;;;2.20;99.90;;;;;;4959560;28;19934;-79
2022/12/14 14:54:30;;;;;;;;;;;2.10;99.90;;;;;;4946839;28;19946;-79